Terminal Aerodrome Forecast
Issued by NWS

Home | Current Version | Previous Version | Text Only | Print | Product List | Glossary On
Versions: 1 2 3 4 5 6 7 8 9 10 11 12 13 14 15 16 17 18 19 20 21
000
FTUS43 KMQT 212300
TAFIWD
TAF
KIWD 212321Z 2200/2224 13005KT P6SM VCSH OVC020
     FM220300 13004KT 6SM BR OVC012
     FM220500 13003KT 1/2SM FG OVC005
     FM221500 11003KT P6SM OVC012
     FM221900 02005KT P6SM OVC020
      AMD NOT SKED=

USA.gov is the U.S. government's official web portal to all federal, state and local government web resources and services.